createdAt,value
2023-01-20T00:01:46.631Z,14.05
2023-01-20T00:04:19.157Z,14.23
2023-01-20T00:06:48.012Z,13.27
2023-01-20T00:09:18.696Z,13.52
2023-01-20T00:11:47.701Z,11.45
2023-01-20T00:14:16.244Z,12.15
2023-01-20T00:16:44.734Z,14.20
2023-01-20T00:19:16.295Z,13.75
2023-01-20T00:21:44.996Z,11.70
2023-01-20T00:24:13.490Z,13.38
2023-01-20T00:26:42.153Z,12.40
2023-01-20T00:29:11.153Z,13.30
2023-01-20T00:31:39.688Z,12.53
2023-01-20T00:34:08.244Z,13.63
2023-01-20T00:36:38.292Z,13.57
2023-01-20T00:39:06.809Z,15.73
2023-01-20T00:41:35.278Z,13.50
2023-01-20T00:44:03.930Z,15.25
2023-01-20T00:46:32.402Z,16.20
2023-01-20T00:49:01.036Z,15.93
2023-01-20T00:51:29.522Z,16.97
2023-01-20T00:53:59.709Z,14.93
2023-01-20T00:56:28.354Z,17.80
2023-01-20T00:58:56.804Z,15.20
2023-01-20T01:01:25.615Z,16.70
2023-01-20T01:03:55.413Z,15.30
2023-01-20T01:06:24.110Z,17.38
2023-01-20T01:08:53.118Z,14.57
2023-01-20T01:11:23.904Z,16.43
2023-01-20T01:13:52.245Z,16.23
2023-01-20T01:16:20.748Z,15.02
2023-01-20T01:18:49.485Z,16.30
2023-01-20T01:21:18.777Z,16.20
2023-01-20T01:23:47.650Z,16.90
2023-01-20T01:26:16.226Z,16.30
2023-01-20T01:28:48.930Z,19.35
2023-01-20T01:31:22.810Z,17.95
2023-01-20T01:33:51.311Z,16.83
2023-01-20T01:36:20.118Z,16.65
2023-01-20T01:38:57.954Z,15.48
2023-01-20T01:41:27.987Z,16.13
2023-01-20T01:44:09.653Z,16.92
2023-01-20T01:46:39.085Z,16.13
2023-01-20T01:49:13.978Z,15.95
2023-01-20T01:51:47.094Z,15.57
2023-01-20T01:54:20.504Z,16.08
2023-01-20T01:56:51.051Z,15.50
2023-01-20T01:59:22.237Z,15.10
2023-01-20T02:01:53.721Z,14.80
2023-01-20T02:04:25.243Z,14.48
2023-01-20T02:06:57.754Z,15.48
2023-01-20T02:09:27.958Z,14.23
2023-01-20T02:12:00.291Z,14.95
2023-01-20T02:14:35.525Z,14.35
2023-01-20T02:17:18.066Z,16.27
2023-01-20T02:20:55.110Z,16.05
2023-01-20T02:23:49.740Z,19.63
2023-01-20T02:26:44.172Z,16.55
2023-01-20T02:29:57.845Z,16.50
2023-01-20T02:32:41.537Z,13.30
2023-01-20T02:35:15.164Z,16.13
2023-01-20T02:37:52.873Z,19.80
2023-01-20T02:40:31.945Z,18.42
2023-01-20T02:43:10.075Z,17.23
2023-01-20T02:45:47.215Z,17.05
2023-01-20T02:48:25.772Z,17.10
2023-01-20T02:51:04.049Z,17.20
2023-01-20T02:53:40.823Z,16.33
2023-01-20T02:56:11.131Z,18.05
2023-01-20T02:58:48.619Z,19.63
2023-01-20T03:01:25.192Z,19.00
2023-01-20T03:03:59.458Z,16.65
2023-01-20T03:06:33.416Z,19.08
2023-01-20T03:09:08.511Z,18.80
2023-01-20T03:11:41.972Z,19.33
2023-01-20T03:14:15.480Z,17.80
2023-01-20T03:16:48.406Z,18.50
2023-01-20T03:19:20.614Z,16.05
2023-01-20T03:21:49.720Z,17.42
2023-01-20T03:24:18.216Z,15.52
2023-01-20T03:26:47.161Z,18.20
2023-01-20T03:29:18.345Z,18.08
2023-01-20T03:31:52.101Z,17.15
2023-01-20T03:34:24.280Z,18.13
2023-01-20T03:36:54.864Z,19.50
2023-01-20T03:39:24.894Z,18.52
2023-01-20T03:42:07.228Z,18.73
2023-01-20T03:44:54.046Z,20.60
2023-01-20T03:47:42.223Z,20.67
2023-01-20T03:50:25.268Z,18.00
2023-01-20T03:53:01.353Z,17.92
2023-01-20T03:55:37.211Z,19.13
2023-01-20T03:58:10.900Z,23.05
2023-01-20T04:00:44.503Z,20.42
2023-01-20T04:03:19.934Z,23.27
2023-01-20T04:05:51.039Z,22.10
2023-01-20T04:08:23.501Z,19.88
2023-01-20T04:10:53.358Z,20.92
2023-01-20T04:13:21.966Z,20.42
2023-01-20T04:15:51.630Z,20.90
2023-01-20T04:18:24.079Z,17.48
2023-01-20T04:21:00.628Z,18.70
2023-01-20T04:23:37.430Z,24.17
2023-01-20T04:26:06.388Z,20.73
2023-01-20T04:28:35.481Z,19.58
2023-01-20T04:31:03.955Z,20.27
2023-01-20T04:33:32.440Z,21.10
2023-01-20T04:36:02.289Z,20.20
2023-01-20T04:38:30.862Z,22.15
2023-01-20T04:40:59.390Z,20.23
2023-01-20T04:43:27.820Z,21.67
2023-01-20T04:45:56.299Z,22.05
2023-01-20T04:48:24.799Z,20.87
2023-01-20T04:50:53.112Z,19.73
2023-01-20T04:53:23.034Z,22.40
2023-01-20T04:55:51.420Z,23.13
2023-01-20T04:58:19.881Z,22.97
2023-01-20T05:00:48.203Z,22.33
2023-01-20T05:03:16.871Z,22.13
2023-01-20T05:05:45.254Z,22.90
2023-01-20T05:08:13.815Z,23.55
2023-01-20T05:10:43.583Z,23.50
2023-01-20T05:13:12.064Z,24.27
2023-01-20T05:15:41.250Z,21.50
2023-01-20T05:18:09.811Z,22.40
2023-01-20T05:20:38.266Z,21.30
2023-01-20T05:23:07.090Z,21.33
2023-01-20T05:25:35.419Z,20.33
2023-01-20T05:28:05.731Z,20.92
2023-01-20T05:30:34.555Z,20.65
2023-01-20T05:33:03.017Z,22.30
2023-01-20T05:35:31.475Z,20.47
2023-01-20T05:37:59.922Z,18.48
2023-01-20T05:40:28.411Z,19.67
2023-01-20T05:43:00.501Z,20.98
2023-01-20T05:45:30.356Z,17.55
2023-01-20T05:48:00.551Z,19.37
2023-01-20T05:50:30.468Z,20.20
2023-01-20T05:52:58.851Z,20.45
2023-01-20T05:55:27.500Z,17.35
2023-01-20T05:57:55.935Z,21.67
2023-01-20T06:00:25.260Z,18.30
2023-01-20T06:02:55.307Z,17.95
2023-01-20T06:05:24.136Z,18.80
2023-01-20T06:07:52.641Z,19.30
2023-01-20T06:10:21.098Z,19.20
2023-01-20T06:12:54.058Z,18.35
2023-01-20T06:15:24.100Z,17.17
2023-01-20T06:17:56.197Z,17.25
2023-01-20T06:20:24.631Z,17.80
2023-01-20T06:22:56.692Z,19.35
2023-01-20T06:25:25.202Z,17.55
2023-01-20T06:27:53.577Z,17.47
2023-01-20T06:30:22.169Z,17.30
2023-01-20T06:32:50.695Z,17.37
2023-01-20T06:35:20.468Z,16.10
2023-01-20T06:37:48.968Z,18.60
2023-01-20T06:40:18.570Z,17.00
2023-01-20T06:42:47.035Z,15.43
2023-01-20T06:45:17.025Z,16.37
2023-01-20T06:48:00.512Z,16.38
2023-01-20T06:50:30.499Z,16.23
2023-01-20T06:52:59.023Z,15.03
2023-01-20T06:55:28.046Z,15.73
2023-01-20T06:57:56.663Z,17.87
2023-01-20T07:00:26.107Z,17.42
2023-01-20T07:02:54.457Z,14.80
2023-01-20T07:05:22.837Z,16.77
2023-01-20T07:07:52.978Z,16.92
2023-01-20T07:10:21.509Z,17.45
2023-01-20T07:12:49.900Z,16.92
2023-01-20T07:15:18.310Z,18.50
2023-01-20T07:17:46.920Z,17.67
2023-01-20T07:20:15.884Z,17.03
2023-01-20T07:22:44.577Z,16.83
2023-01-20T07:25:14.757Z,17.23
2023-01-20T07:27:44.089Z,16.80
2023-01-20T07:30:13.134Z,16.33
2023-01-20T07:32:41.620Z,16.35
2023-01-20T07:35:10.858Z,16.23
2023-01-20T07:37:39.344Z,17.00
2023-01-20T07:40:10.255Z,13.20
2023-01-20T07:42:40.360Z,14.15
2023-01-20T07:45:10.239Z,14.18
2023-01-20T07:47:38.659Z,14.80
2023-01-20T07:50:07.885Z,13.73
2023-01-20T07:52:36.305Z,15.02
2023-01-20T07:55:05.375Z,14.17
2023-01-20T07:57:33.814Z,14.63
2023-01-20T08:00:04.641Z,15.25
2023-01-20T08:02:39.021Z,13.27
2023-01-20T08:05:09.009Z,14.50
2023-01-20T08:07:37.411Z,12.83
2023-01-20T08:10:07.110Z,12.67
2023-01-20T08:12:35.420Z,11.10
2023-01-20T08:15:06.482Z,12.35
2023-01-20T08:17:34.912Z,12.77
2023-01-20T08:20:03.422Z,13.10
2023-01-20T08:22:31.734Z,13.47
2023-01-20T08:25:00.033Z,14.07
2023-01-20T08:27:28.559Z,13.85
2023-01-20T08:29:56.963Z,12.17
2023-01-20T08:32:26.663Z,14.15
2023-01-20T08:34:55.062Z,13.65
2023-01-20T08:37:23.663Z,14.50
2023-01-20T08:39:51.989Z,13.57
2023-01-20T08:42:20.405Z,14.15
2023-01-20T08:44:53.344Z,14.63
2023-01-20T08:47:21.742Z,13.68
2023-01-20T08:49:53.584Z,14.60
2023-01-20T08:52:22.077Z,19.05
2023-01-20T08:54:53.952Z,14.43
2023-01-20T08:57:22.262Z,13.03
2023-01-20T08:59:50.795Z,13.40
2023-01-20T09:02:19.117Z,13.43
2023-01-20T09:04:49.666Z,14.18
2023-01-20T09:07:20.750Z,14.87
2023-01-20T09:09:49.290Z,12.93
2023-01-20T09:12:17.599Z,13.23
2023-01-20T09:14:46.753Z,15.93
2023-01-20T09:17:15.144Z,15.67
2023-01-20T09:19:43.596Z,14.67
2023-01-20T09:22:11.945Z,13.98
2023-01-20T09:24:41.959Z,12.13
2023-01-20T09:27:10.453Z,13.02
2023-01-20T09:29:38.846Z,13.00
2023-01-20T09:32:07.393Z,13.90
2023-01-20T09:34:36.302Z,15.10
2023-01-20T09:37:18.831Z,15.45
2023-01-20T09:40:06.845Z,13.53
2023-01-20T09:43:08.853Z,13.03
2023-01-20T09:45:45.585Z,13.15
2023-01-20T09:48:39.723Z,14.13
2023-01-20T09:51:32.737Z,14.37
2023-01-20T09:54:09.990Z,14.10
2023-01-20T09:56:48.004Z,13.43
2023-01-20T09:59:22.073Z,13.70
2023-01-20T10:01:55.098Z,14.07
2023-01-20T10:04:32.914Z,13.07
2023-01-20T10:07:09.110Z,12.67
2023-01-20T10:09:46.045Z,11.80
2023-01-20T10:12:23.513Z,13.47
2023-01-20T10:14:59.569Z,13.40
2023-01-20T10:17:35.033Z,12.97
2023-01-20T10:20:08.924Z,16.00
2023-01-20T10:22:43.927Z,12.93
2023-01-20T10:25:22.051Z,12.83
2023-01-20T10:27:57.222Z,12.13
2023-01-20T10:30:31.824Z,12.67
2023-01-20T10:33:07.092Z,13.53
2023-01-20T10:35:40.467Z,13.70
2023-01-20T10:38:21.331Z,14.53
2023-01-20T10:40:56.720Z,14.33
2023-01-20T10:43:27.594Z,13.87
2023-01-20T10:46:25.064Z,13.70
2023-01-20T10:49:22.724Z,13.90
2023-01-20T10:52:04.455Z,15.30
2023-01-20T10:54:43.257Z,14.57
2023-01-20T10:57:16.319Z,13.80
2023-01-20T10:59:50.447Z,15.23
2023-01-20T11:02:23.983Z,12.93
2023-01-20T11:04:58.805Z,16.13
2023-01-20T11:07:28.807Z,13.10
2023-01-20T11:09:57.453Z,14.27
2023-01-20T11:12:31.413Z,13.40
2023-01-20T11:15:02.544Z,14.07
2023-01-20T11:17:31.251Z,14.10
2023-01-20T11:20:07.518Z,16.23
2023-01-20T11:22:38.795Z,16.60
2023-01-20T11:25:23.691Z,17.20
2023-01-20T11:27:52.952Z,18.00
2023-01-20T11:30:30.893Z,17.97
2023-01-20T11:33:17.328Z,17.00
2023-01-20T11:36:00.878Z,18.13
2023-01-20T11:38:31.736Z,16.47
2023-01-20T11:41:00.672Z,16.43
2023-01-20T11:43:36.230Z,16.23
2023-01-20T11:46:28.740Z,16.40
2023-01-20T11:49:20.361Z,17.20
2023-01-20T11:51:55.657Z,16.17
2023-01-20T11:54:26.661Z,15.83
2023-01-20T11:57:00.027Z,16.70
2023-01-20T11:59:31.381Z,16.80
2023-01-20T12:02:21.249Z,14.90
2023-01-20T12:05:03.850Z,15.53
2023-01-20T12:07:38.587Z,17.10
2023-01-20T12:10:18.736Z,16.47
2023-01-20T12:12:52.795Z,15.07
2023-01-20T12:15:24.789Z,16.03
2023-01-20T12:17:59.987Z,17.63
2023-01-20T12:20:45.659Z,15.20
2023-01-20T12:23:24.917Z,15.60
2023-01-20T12:25:57.942Z,16.50
2023-01-20T12:28:35.274Z,14.90
2023-01-20T12:31:05.888Z,15.30
2023-01-20T12:33:40.152Z,16.20
2023-01-20T12:36:39.568Z,14.00
2023-01-20T12:39:29.487Z,15.57
2023-01-20T12:42:34.451Z,14.80
2023-01-20T12:45:13.846Z,15.80
2023-01-20T12:47:58.472Z,13.47
2023-01-20T12:50:46.389Z,14.60
2023-01-20T12:53:38.991Z,15.97
2023-01-20T12:56:19.858Z,14.07
2023-01-20T12:58:58.501Z,15.37
2023-01-20T13:01:55.613Z,15.57
2023-01-20T13:05:26.003Z,13.37
2023-01-20T13:08:08.524Z,12.83
2023-01-20T13:11:05.353Z,12.70
2023-01-20T13:13:56.016Z,13.00
2023-01-20T13:16:37.658Z,13.57
2023-01-20T13:19:14.729Z,12.57
2023-01-20T13:21:43.287Z,12.00
2023-01-20T13:24:24.347Z,12.10
2023-01-20T13:26:53.450Z,12.87
2023-01-20T13:29:23.570Z,12.60
2023-01-20T13:31:54.015Z,11.90
2023-01-20T13:34:36.463Z,12.17
2023-01-20T13:37:39.507Z,9.50
2023-01-20T13:40:58.740Z,9.43
2023-01-20T13:43:46.979Z,7.37
2023-01-20T13:46:50.048Z,6.00
2023-01-20T13:49:50.334Z,6.20
2023-01-20T13:53:25.702Z,6.87
2023-01-20T13:56:26.712Z,8.10
2023-01-20T13:58:55.460Z,7.37
2023-01-20T14:01:23.913Z,9.03
2023-01-20T14:04:04.841Z,9.60
2023-01-20T14:06:35.891Z,10.00
2023-01-20T14:09:19.892Z,9.87
2023-01-20T14:11:51.914Z,8.93
2023-01-20T14:14:22.961Z,9.90
2023-01-20T14:16:52.252Z,10.10
2023-01-20T14:19:25.375Z,10.80
2023-01-20T14:21:56.500Z,18.47
2023-01-20T14:24:31.927Z,21.63
2023-01-20T14:27:12.890Z,11.80
2023-01-20T14:29:41.408Z,10.20
2023-01-20T14:32:22.567Z,8.20
2023-01-20T14:34:51.667Z,10.00
2023-01-20T14:37:27.781Z,8.67
2023-01-20T14:40:01.063Z,9.70
2023-01-20T14:42:31.141Z,10.73
2023-01-20T14:45:00.031Z,10.57
2023-01-20T14:47:31.412Z,10.10
2023-01-20T14:49:59.994Z,9.50
2023-01-20T14:52:32.418Z,10.30
2023-01-20T14:55:02.259Z,8.83
2023-01-20T14:57:34.004Z,9.03
2023-01-20T15:00:20.705Z,8.20
2023-01-20T15:03:05.357Z,7.57
2023-01-20T15:05:40.486Z,9.07
2023-01-20T15:08:26.326Z,8.27
2023-01-20T15:11:23.923Z,8.70
2023-01-20T15:14:13.648Z,8.00
2023-01-20T15:16:51.094Z,8.40
2023-01-20T15:19:46.689Z,9.50
2023-01-20T15:22:22.457Z,9.20
2023-01-20T15:24:52.072Z,9.47
2023-01-20T15:27:34.371Z,10.07
2023-01-20T15:30:14.286Z,10.33
2023-01-20T15:32:43.054Z,9.47
2023-01-20T15:35:15.242Z,9.47
2023-01-20T15:37:45.331Z,9.70
2023-01-20T15:40:20.236Z,9.00
2023-01-20T15:42:53.661Z,8.90
2023-01-20T15:45:22.301Z,8.37
2023-01-20T15:47:50.674Z,9.83
2023-01-20T15:50:22.642Z,8.87
2023-01-20T15:52:51.633Z,10.27
2023-01-20T15:55:21.023Z,9.87
2023-01-20T15:57:53.128Z,8.60
2023-01-20T16:00:24.772Z,8.63
2023-01-20T16:02:53.212Z,8.73
2023-01-20T16:05:22.125Z,10.97
2023-01-20T16:07:50.633Z,9.07
2023-01-20T16:10:21.029Z,9.40
2023-01-20T16:12:50.833Z,9.43
2023-01-20T16:15:20.117Z,8.37
2023-01-20T16:17:50.917Z,8.40
2023-01-20T16:20:25.647Z,8.63
2023-01-20T16:22:54.277Z,8.60
2023-01-20T16:25:23.210Z,8.63
2023-01-20T16:27:52.960Z,8.33
2023-01-20T16:30:24.691Z,7.70
2023-01-20T16:32:53.244Z,7.10
2023-01-20T16:35:23.606Z,8.80
2023-01-20T16:37:52.412Z,8.70
2023-01-20T16:40:22.715Z,9.87
2023-01-20T16:42:56.962Z,9.10
2023-01-20T16:45:29.417Z,9.90
2023-01-20T16:47:58.105Z,9.43
2023-01-20T16:50:28.549Z,9.70
2023-01-20T16:52:57.277Z,11.17
2023-01-20T16:55:25.727Z,9.30
2023-01-20T16:57:55.415Z,10.23
2023-01-20T17:00:24.432Z,10.43
2023-01-20T17:02:53.291Z,10.17
2023-01-20T17:05:25.639Z,10.30
2023-01-20T17:07:56.885Z,10.10
2023-01-20T17:10:27.024Z,10.13
2023-01-20T17:12:58.299Z,10.77
2023-01-20T17:15:27.553Z,10.30
2023-01-20T17:17:59.879Z,11.30
2023-01-20T17:20:31.018Z,9.33
2023-01-20T17:22:59.538Z,10.87
2023-01-20T17:25:28.407Z,10.70
2023-01-20T17:27:58.227Z,10.00
2023-01-20T17:30:26.966Z,9.40
2023-01-20T17:32:55.628Z,8.40
2023-01-20T17:35:24.022Z,8.93
2023-01-20T17:37:52.600Z,9.00
2023-01-20T17:40:21.110Z,8.90
2023-01-20T17:42:53.023Z,8.73
2023-01-20T17:45:22.759Z,10.07
2023-01-20T17:47:52.231Z,9.60
2023-01-20T17:50:20.881Z,8.53
2023-01-20T17:52:49.723Z,9.23
2023-01-20T17:55:18.608Z,9.30
2023-01-20T17:57:47.022Z,10.50
2023-01-20T18:00:16.443Z,10.60
2023-01-20T18:02:46.314Z,9.47
2023-01-20T18:05:15.301Z,9.63
2023-01-20T18:07:43.629Z,10.90
2023-01-20T18:10:13.102Z,10.97
2023-01-20T18:12:41.730Z,9.60
2023-01-20T18:15:10.801Z,10.00
2023-01-20T18:17:40.716Z,9.57
2023-01-20T18:20:12.749Z,9.97
2023-01-20T18:22:41.284Z,11.00
2023-01-20T18:25:10.827Z,10.37
2023-01-20T18:27:39.358Z,10.03
2023-01-20T18:30:09.668Z,10.27
2023-01-20T18:32:38.016Z,10.40
2023-01-20T18:35:07.380Z,9.97
2023-01-20T18:37:40.423Z,11.33
2023-01-20T18:40:11.777Z,9.13
2023-01-20T18:42:40.397Z,10.57
2023-01-20T18:45:10.160Z,11.50
2023-01-20T18:47:38.534Z,12.10
2023-01-20T18:50:07.927Z,10.40
2023-01-20T18:52:38.986Z,11.43
2023-01-20T18:55:09.533Z,12.60
2023-01-20T18:57:37.866Z,11.17
2023-01-20T19:00:07.768Z,12.17
2023-01-20T19:02:36.198Z,11.27
2023-01-20T19:05:05.035Z,12.53
2023-01-20T19:07:33.327Z,12.53
2023-01-20T19:10:03.072Z,10.73
2023-01-20T19:12:31.693Z,11.77
2023-01-20T19:15:00.162Z,11.23
2023-01-20T19:17:30.701Z,12.50
2023-01-20T19:19:59.051Z,13.90
2023-01-20T19:22:27.513Z,11.03
2023-01-20T19:24:55.898Z,12.17
2023-01-20T19:27:26.454Z,13.50
2023-01-20T19:29:55.012Z,12.87
2023-01-20T19:32:23.394Z,12.40
2023-01-20T19:34:51.774Z,13.00
2023-01-20T19:37:20.146Z,13.80
2023-01-20T19:39:49.036Z,13.23
2023-01-20T19:42:17.523Z,12.40
2023-01-20T19:44:47.298Z,13.50
2023-01-20T19:47:15.843Z,12.17
2023-01-20T19:49:44.283Z,14.07
2023-01-20T19:52:12.696Z,11.93
2023-01-20T19:54:41.019Z,14.87
2023-01-20T19:57:09.751Z,14.33
2023-01-20T19:59:40.863Z,14.07
2023-01-20T20:02:11.501Z,13.17
2023-01-20T20:04:40.018Z,14.87
2023-01-20T20:07:09.058Z,15.02
2023-01-20T20:09:38.226Z,14.63
2023-01-20T20:12:07.778Z,15.90
2023-01-20T20:14:36.358Z,15.70
2023-01-20T20:17:05.152Z,15.43
2023-01-20T20:19:35.077Z,15.80
2023-01-20T20:22:03.513Z,14.90
2023-01-20T20:24:31.951Z,13.17
2023-01-20T20:27:00.378Z,13.77
2023-01-20T20:29:28.885Z,14.10
2023-01-20T20:31:57.395Z,16.97
2023-01-20T20:34:25.991Z,14.33
2023-01-20T20:36:55.809Z,15.43
2023-01-20T20:39:24.166Z,16.63
2023-01-20T20:41:52.509Z,15.30
2023-01-20T20:44:21.003Z,16.07
2023-01-20T20:46:49.687Z,16.70
2023-01-20T20:49:19.048Z,16.30
2023-01-20T20:51:47.786Z,16.15
2023-01-20T20:54:17.821Z,16.03
2023-01-20T20:56:46.752Z,14.97
2023-01-20T20:59:15.369Z,16.10
2023-01-20T21:01:43.852Z,16.58
2023-01-20T21:04:12.312Z,16.47
2023-01-20T21:06:40.668Z,17.48
2023-01-20T21:09:09.132Z,17.35
2023-01-20T21:11:39.693Z,15.57
2023-01-20T21:14:09.338Z,16.87
2023-01-20T21:16:38.093Z,15.80
2023-01-20T21:19:06.714Z,17.27
2023-01-20T21:21:35.192Z,14.87
2023-01-20T21:24:04.333Z,17.23
2023-01-20T21:26:32.787Z,18.20
2023-01-20T21:29:03.777Z,17.65
2023-01-20T21:31:34.673Z,15.97
2023-01-20T21:34:03.736Z,15.65
2023-01-20T21:36:34.505Z,17.40
2023-01-20T21:39:03.146Z,15.20
2023-01-20T21:41:31.605Z,18.15
2023-01-20T21:44:17.926Z,17.70
2023-01-20T21:46:49.408Z,17.80
2023-01-20T21:49:35.350Z,19.73
2023-01-20T21:52:21.463Z,16.67
2023-01-20T21:54:49.908Z,18.40
2023-01-20T21:57:18.487Z,16.33
2023-01-20T21:59:47.156Z,16.80
2023-01-20T22:02:17.212Z,18.02
2023-01-20T22:04:46.782Z,15.35
2023-01-20T22:07:16.778Z,16.35
2023-01-20T22:09:45.532Z,17.13
2023-01-20T22:12:14.878Z,17.30
2023-01-20T22:14:43.640Z,18.70
2023-01-20T22:17:13.455Z,18.52
2023-01-20T22:19:43.931Z,16.77
2023-01-20T22:22:15.012Z,16.77
2023-01-20T22:24:43.793Z,14.82
2023-01-20T22:27:12.263Z,17.27
2023-01-20T22:29:40.946Z,17.38
2023-01-20T22:32:09.341Z,17.02
2023-01-20T22:34:37.737Z,17.63
2023-01-20T22:37:07.497Z,17.77
2023-01-20T22:39:36.029Z,17.02
2023-01-20T22:42:04.484Z,18.05
2023-01-20T22:44:32.896Z,16.40
2023-01-20T22:47:01.783Z,16.17
2023-01-20T22:49:30.185Z,18.38
2023-01-20T22:51:58.654Z,17.40
2023-01-20T22:54:28.562Z,15.70
2023-01-20T22:56:57.008Z,16.75
2023-01-20T22:59:25.474Z,17.20
2023-01-20T23:01:53.856Z,18.45
2023-01-20T23:04:22.210Z,16.30
2023-01-20T23:06:50.591Z,16.15
2023-01-20T23:09:18.962Z,16.70
2023-01-20T23:11:49.583Z,15.57
2023-01-20T23:14:18.152Z,17.00
2023-01-20T23:16:46.594Z,15.63
2023-01-20T23:19:15.069Z,17.77
2023-01-20T23:21:43.457Z,15.57
2023-01-20T23:24:11.851Z,17.65
2023-01-20T23:26:40.352Z,15.80
2023-01-20T23:29:10.297Z,17.80
2023-01-20T23:31:38.759Z,17.05
2023-01-20T23:34:07.143Z,17.35
2023-01-20T23:36:35.518Z,17.05
2023-01-20T23:39:04.043Z,16.40
2023-01-20T23:41:32.509Z,17.52
2023-01-20T23:44:00.986Z,15.45
2023-01-20T23:46:30.791Z,14.80
2023-01-20T23:48:59.221Z,15.25
2023-01-20T23:51:27.569Z,15.90
2023-01-20T23:53:56.879Z,16.13
2023-01-20T23:56:26.484Z,15.45
2023-01-20T23:58:54.850Z,16.33
